ESGR

Skövde Airport

Skövde, Sweden
METAR ESGR 231150Z AUTO 34014KT 9999 SCT120/// 11/01 Q0993
Observed Flight Rules
Oct-23 @ 11:50 UTC (37 minutes ago) Visual Flight Rules
Wind Visibility Clouds
340° at 14 knots 10,000+ meters
  • Scattered at 12,000' AGL
Temperatures Readings
Current 11°C / 52°F
Dewpoint 1°C / 34°F
Humidity 50%
Altimeter 29.32" Hg
Pressure 993 hPa
Elevation 105
METAR ESGR 231150Z AUTO 34014KT 9999 SCT120/// 11/01 Q0993
Observed Flight Rules
Oct-23 @ 11:50 UTC
(37 minutes ago)
VFR
Wind Visibility
340° at 14 knots 10,000+ meters
Clouds
  • Scattered at 12,000' AGL
Temperature Dewpoint
11°C / 52°F 1°C / 34°F
Humidity Altimeter Pressure
50% 29.32" Hg 993 hPa